sensor_id;sensor_type;location;lat;lon;timestamp;pressure;altitude;pressure_sealevel;temperature
55038;BMP280;40937;53.594;10.034;2023-04-01T00:00:58;99638.56;;;11.13
55038;BMP280;40937;53.594;10.034;2023-04-01T00:03:26;99634.31;;;11.12
55038;BMP280;40937;53.594;10.034;2023-04-01T00:05:55;99636.97;;;11.12
55038;BMP280;40937;53.594;10.034;2023-04-01T00:08:23;99638.00;;;11.11
55038;BMP280;40937;53.594;10.034;2023-04-01T00:10:53;99639.06;;;11.10
55038;BMP280;40937;53.594;10.034;2023-04-01T00:13:21;99636.69;;;11.08
55038;BMP280;40937;53.594;10.034;2023-04-01T00:15:51;99643.78;;;11.08
55038;BMP280;40937;53.594;10.034;2023-04-01T00:18:19;99633.50;;;11.06
55038;BMP280;40937;53.594;10.034;2023-04-01T00:20:48;99637.22;;;11.05
55038;BMP280;40937;53.594;10.034;2023-04-01T00:23:16;99639.34;;;11.03
55038;BMP280;40937;53.594;10.034;2023-04-01T00:25:45;99642.75;;;11.04
55038;BMP280;40937;53.594;10.034;2023-04-01T00:28:15;99640.91;;;11.04
55038;BMP280;40937;53.594;10.034;2023-04-01T00:30:43;99647.78;;;11.05
55038;BMP280;40937;53.594;10.034;2023-04-01T00:33:12;99640.13;;;11.04
55038;BMP280;40937;53.594;10.034;2023-04-01T00:35:39;99645.66;;;11.02
55038;BMP280;40937;53.594;10.034;2023-04-01T00:38:07;99641.66;;;11.00
55038;BMP280;40937;53.594;10.034;2023-04-01T00:40:40;99640.63;;;11.01
55038;BMP280;40937;53.594;10.034;2023-04-01T00:43:14;99636.41;;;11.00
55038;BMP280;40937;53.594;10.034;2023-04-01T00:45:48;99642.75;;;11.04
55038;BMP280;40937;53.594;10.034;2023-04-01T00:48:17;99640.91;;;11.04
55038;BMP280;40937;53.594;10.034;2023-04-01T00:50:50;99640.63;;;11.01
55038;BMP280;40937;53.594;10.034;2023-04-01T00:53:19;99635.34;;;11.01
55038;BMP280;40937;53.594;10.034;2023-04-01T00:55:51;99644.56;;;10.98
55038;BMP280;40937;53.594;10.034;2023-04-01T00:58:23;99642.22;;;10.97
55038;BMP280;40937;53.594;10.034;2023-04-01T01:00:53;99646.44;;;10.98
55038;BMP280;40937;53.594;10.034;2023-04-01T01:03:21;99652.47;;;10.98
55038;BMP280;40937;53.594;10.034;2023-04-01T01:08:54;99653.00;;;10.95
55038;BMP280;40937;53.594;10.034;2023-04-01T01:11:31;99643.28;;;10.96
55038;BMP280;40937;53.594;10.034;2023-04-01T01:14:09;99647.47;;;10.91
55038;BMP280;40937;53.594;10.034;2023-04-01T01:16:43;99642.19;;;10.91
55038;BMP280;40937;53.594;10.034;2023-04-01T01:19:29;99649.56;;;10.89
55038;BMP280;40937;53.594;10.034;2023-04-01T01:22:23;99651.13;;;10.90
55038;BMP280;40937;53.594;10.034;2023-04-01T01:25:16;99646.94;;;10.89
55038;BMP280;40937;53.594;10.034;2023-04-01T01:27:51;99651.69;;;10.87
55038;BMP280;40937;53.594;10.034;2023-04-01T01:30:38;99651.69;;;10.87
55038;BMP280;40937;53.594;10.034;2023-04-01T01:33:23;99648.50;;;10.85
55038;BMP280;40937;53.594;10.034;2023-04-01T01:35:55;99650.63;;;10.83
55038;BMP280;40937;53.594;10.034;2023-04-01T01:38:26;99649.00;;;10.82
55038;BMP280;40937;53.594;10.034;2023-04-01T01:40:59;99658.53;;;10.83
55038;BMP280;40937;53.594;10.034;2023-04-01T01:43:30;99645.88;;;10.80
55038;BMP280;40937;53.594;10.034;2023-04-01T01:46:03;99661.16;;;10.83
55038;BMP280;40937;53.594;10.034;2023-04-01T01:48:33;99656.69;;;10.84
55038;BMP280;40937;53.594;10.034;2023-04-01T01:51:03;99659.06;;;10.85
55038;BMP280;40937;53.594;10.034;2023-04-01T01:53:30;99660.34;;;10.83
55038;BMP280;40937;53.594;10.034;2023-04-01T01:55:58;99658.78;;;10.82
55038;BMP280;40937;53.594;10.034;2023-04-01T01:58:29;99659.06;;;10.80
55038;BMP280;40937;53.594;10.034;2023-04-01T02:00:59;99660.34;;;10.78
55038;BMP280;40937;53.594;10.034;2023-04-01T02:03:29;99669.56;;;10.75
55038;BMP280;40937;53.594;10.034;2023-04-01T02:06:00;99667.47;;;10.77
55038;BMP280;40937;53.594;10.034;2023-04-01T02:08:34;99669.56;;;10.75
55038;BMP280;40937;53.594;10.034;2023-04-01T02:11:04;99658.47;;;10.73
55038;BMP280;40937;53.594;10.034;2023-04-01T02:13:42;99660.06;;;10.74
55038;BMP280;40937;53.594;10.034;2023-04-01T02:16:17;99660.63;;;10.71
55038;BMP280;40937;53.594;10.034;2023-04-01T02:18:48;99657.16;;;10.70
55038;BMP280;40937;53.594;10.034;2023-04-01T02:21:18;99664.28;;;10.70
55038;BMP280;40937;53.594;10.034;2023-04-01T02:23:49;99662.44;;;10.70
55038;BMP280;40937;53.594;10.034;2023-04-01T02:26:17;99664.03;;;10.71
55038;BMP280;40937;53.594;10.034;2023-04-01T02:28:46;99661.66;;;10.70
55038;BMP280;40937;53.594;10.034;2023-04-01T02:31:14;99659.25;;;10.68
55038;BMP280;40937;53.594;10.034;2023-04-01T02:33:41;99671.66;;;10.68
55038;BMP280;40937;53.594;10.034;2023-04-01T02:36:12;99666.63;;;10.66
55038;BMP280;40937;53.594;10.034;2023-04-01T02:38:40;99676.38;;;10.66
55038;BMP280;40937;53.594;10.034;2023-04-01T02:41:09;99673.22;;;10.64
55038;BMP280;40937;53.594;10.034;2023-04-01T02:43:36;99675.88;;;10.64
55038;BMP280;40937;53.594;10.034;2023-04-01T02:46:03;99678.50;;;10.64
55038;BMP280;40937;53.594;10.034;2023-04-01T02:48:30;99686.66;;;10.62
55038;BMP280;40937;53.594;10.034;2023-04-01T02:50:58;99684.28;;;10.61
55038;BMP280;40937;53.594;10.034;2023-04-01T02:53:25;99685.31;;;10.60
55038;BMP280;40937;53.594;10.034;2023-04-01T02:55:52;99681.13;;;10.59
55038;BMP280;40937;53.594;10.034;2023-04-01T02:58:21;99686.38;;;10.59
55038;BMP280;40937;53.594;10.034;2023-04-01T03:00:48;99691.16;;;10.62
55038;BMP280;40937;53.594;10.034;2023-04-01T03:03:15;99686.91;;;10.61
55038;BMP280;40937;53.594;10.034;2023-04-01T03:05:43;99684.28;;;10.61
55038;BMP280;40937;53.594;10.034;2023-04-01T03:08:10;99697.22;;;10.62
55038;BMP280;40937;53.594;10.034;2023-04-01T03:10:37;99694.84;;;10.61
55038;BMP280;40937;53.594;10.034;2023-04-01T03:13:05;99689.03;;;10.59
55038;BMP280;40937;53.594;10.034;2023-04-01T03:15:33;99694.84;;;10.61
55038;BMP280;40937;53.594;10.034;2023-04-01T03:18:00;99700.09;;;10.61
55038;BMP280;40937;53.594;10.034;2023-04-01T03:20:28;99695.63;;;10.61
55038;BMP280;40937;53.594;10.034;2023-04-01T03:22:56;99698.50;;;10.60
55038;BMP280;40937;53.594;10.034;2023-04-01T03:25:23;99703.78;;;10.60
55038;BMP280;40937;53.594;10.034;2023-04-01T03:27:50;99702.22;;;10.59
55038;BMP280;40937;53.594;10.034;2023-04-01T03:30:18;99694.53;;;10.57
55038;BMP280;40937;53.594;10.034;2023-04-01T03:32:51;99699.00;;;10.57
55038;BMP280;40937;53.594;10.034;2023-04-01T03:35:18;99702.22;;;10.59
55038;BMP280;40937;53.594;10.034;2023-04-01T03:37:46;99705.38;;;10.61
55038;BMP280;40937;53.594;10.034;2023-04-01T03:40:13;99700.59;;;10.58
55038;BMP280;40937;53.594;10.034;2023-04-01T03:42:40;99703.25;;;10.52
55038;BMP280;40937;53.594;10.034;2023-04-01T03:45:08;99710.91;;;10.54
55038;BMP280;40937;53.594;10.034;2023-04-01T03:47:38;99707.19;;;10.55
55038;BMP280;40937;53.594;10.034;2023-04-01T03:50:07;99713.78;;;10.58
55038;BMP280;40937;53.594;10.034;2023-04-01T03:52:35;99709.53;;;10.46
55038;BMP280;40937;53.594;10.034;2023-04-01T03:55:03;99717.97;;;10.48
55038;BMP280;40937;53.594;10.034;2023-04-01T03:57:31;99720.59;;;10.48
55038;BMP280;40937;53.594;10.034;2023-04-01T04:00:06;99721.16;;;10.50
55038;BMP280;40937;53.594;10.034;2023-04-01T04:02:39;99717.97;;;10.48
55038;BMP280;40937;53.594;10.034;2023-04-01T04:05:09;99725.34;;;10.46
55038;BMP280;40937;53.594;10.034;2023-04-01T04:07:37;99723.78;;;10.50
55038;BMP280;40937;53.594;10.034;2023-04-01T04:10:08;99723.22;;;10.48
55038;BMP280;40937;53.594;10.034;2023-04-01T04:12:35;99726.44;;;10.50
55038;BMP280;40937;53.594;10.034;2023-04-01T04:15:03;99721.16;;;10.50
55038;BMP280;40937;53.594;10.034;2023-04-01T04:17:30;99724.31;;;10.47
55038;BMP280;40937;53.594;10.034;2023-04-01T04:19:57;99731.13;;;10.43
55038;BMP280;40937;53.594;10.034;2023-04-01T04:22:26;99737.19;;;10.44
55038;BMP280;40937;53.594;10.034;2023-04-01T04:24:54;99730.63;;;10.46
55038;BMP280;40937;53.594;10.034;2023-04-01T04:27:21;99729.84;;;10.46
55038;BMP280;40937;53.594;10.034;2023-04-01T04:30:00;99741.19;;;10.46
55038;BMP280;40937;53.594;10.034;2023-04-01T04:32:27;99735.91;;;10.46
55038;BMP280;40937;53.594;10.034;2023-04-01T04:34:54;99740.66;;;10.49
55038;BMP280;40937;53.594;10.034;2023-04-01T04:37:21;99744.31;;;10.48
55038;BMP280;40937;53.594;10.034;2023-04-01T04:39:50;99749.59;;;10.43
55038;BMP280;40937;53.594;10.034;2023-04-01T04:42:17;99757.50;;;10.43
55038;BMP280;40937;53.594;10.034;2023-04-01T04:44:45;99754.84;;;10.43
55038;BMP280;40937;53.594;10.034;2023-04-01T04:47:12;99751.94;;;10.40
55038;BMP280;40937;53.594;10.034;2023-04-01T04:49:39;99756.94;;;10.41
55038;BMP280;40937;53.594;10.034;2023-04-01T04:52:09;99754.31;;;10.41
55038;BMP280;40937;53.594;10.034;2023-04-01T04:54:36;99765.91;;;10.40
55038;BMP280;40937;53.594;10.034;2023-04-01T04:57:05;99762.16;;;10.31
55038;BMP280;40937;53.594;10.034;2023-04-01T04:59:39;99762.19;;;10.36
55038;BMP280;40937;53.594;10.034;2023-04-01T05:02:11;99769.06;;;10.37
55038;BMP280;40937;53.594;10.034;2023-04-01T05:04:39;99762.41;;;10.29
55038;BMP280;40937;53.594;10.034;2023-04-01T05:07:09;99769.28;;;10.30
55038;BMP280;40937;53.594;10.034;2023-04-01T05:09:36;99770.06;;;10.31
55038;BMP280;40937;53.594;10.034;2023-04-01T05:12:05;99775.84;;;10.28
55038;BMP280;40937;53.594;10.034;2023-04-01T05:14:51;99780.31;;;10.27
55038;BMP280;40937;53.594;10.034;2023-04-01T05:17:18;99781.59;;;10.25
55038;BMP280;40937;53.594;10.034;2023-04-01T05:19:45;99798.31;;;10.08
55038;BMP280;40937;53.594;10.034;2023-04-01T05:22:14;99798.13;;;9.88
55038;BMP280;40937;53.594;10.034;2023-04-01T05:24:42;99798.66;;;9.58
55038;BMP280;40937;53.594;10.034;2023-04-01T05:27:10;99798.22;;;9.44
55038;BMP280;40937;53.594;10.034;2023-04-01T05:29:42;99807.97;;;9.43
55038;BMP280;40937;53.594;10.034;2023-04-01T05:32:25;99811.69;;;9.25
55038;BMP280;40937;53.594;10.034;2023-04-01T05:34:52;99821.03;;;9.16
55038;BMP280;40937;53.594;10.034;2023-04-01T05:37:20;99828.31;;;9.09
55038;BMP280;40937;53.594;10.034;2023-04-01T05:39:48;99828.75;;;9.01
55038;BMP280;40937;53.594;10.034;2023-04-01T05:42:18;99822.28;;;8.91
55038;BMP280;40937;53.594;10.034;2023-04-01T05:44:46;99831.63;;;8.82
55038;BMP280;40937;53.594;10.034;2023-04-01T05:47:32;99842.00;;;8.72
55038;BMP280;40937;53.594;10.034;2023-04-01T05:49:59;99841.91;;;8.67
55038;BMP280;40937;53.594;10.034;2023-04-01T05:52:26;99847.25;;;8.55
55038;BMP280;40937;53.594;10.034;2023-04-01T05:54:53;99848.84;;;8.39
55038;BMP280;40937;53.594;10.034;2023-04-01T05:57:22;99859.16;;;8.29
55038;BMP280;40937;53.594;10.034;2023-04-01T05:59:49;99864.56;;;8.22
55038;BMP280;40937;53.594;10.034;2023-04-01T06:02:17;99863.13;;;8.14
55038;BMP280;40937;53.594;10.034;2023-04-01T06:04:45;99872.41;;;8.05
55038;BMP280;40937;53.594;10.034;2023-04-01T06:07:13;99866.69;;;8.08
55038;BMP280;40937;53.594;10.034;2023-04-01T06:09:41;99875.59;;;8.07
55038;BMP280;40937;53.594;10.034;2023-04-01T06:12:35;99880.53;;;7.92
55038;BMP280;40937;53.594;10.034;2023-04-01T06:15:17;99885.38;;;7.83
55038;BMP280;40937;53.594;10.034;2023-04-01T06:17:56;99886.06;;;7.78
55038;BMP280;40937;53.594;10.034;2023-04-01T06:20:33;99890.47;;;7.90
55038;BMP280;40937;53.594;10.034;2023-04-01T06:23:10;99886.28;;;7.77
55038;BMP280;40937;53.594;10.034;2023-04-01T06:26:12;99896.47;;;7.73
55038;BMP280;40937;53.594;10.034;2023-04-01T06:29:16;99914.84;;;7.73
55038;BMP280;40937;53.594;10.034;2023-04-01T06:32:08;99916.66;;;7.61
55038;BMP280;40937;53.594;10.034;2023-04-01T06:34:55;99915.88;;;7.49
55038;BMP280;40937;53.594;10.034;2023-04-01T06:37:40;99917.94;;;7.47
55038;BMP280;40937;53.594;10.034;2023-04-01T06:40:34;99921.13;;;7.49
55038;BMP280;40937;53.594;10.034;2023-04-01T06:43:14;99923.97;;;7.47
55038;BMP280;40937;53.594;10.034;2023-04-01T06:46:07;99925.00;;;7.58
55038;BMP280;40937;53.594;10.034;2023-04-01T06:49:14;99923.41;;;7.45
55038;BMP280;40937;53.594;10.034;2023-04-01T06:52:09;99942.13;;;7.49
55038;BMP280;40937;53.594;10.034;2023-04-01T06:54:58;99935.72;;;7.45
55038;BMP280;40937;53.594;10.034;2023-04-01T06:58:03;99944.16;;;7.47
55038;BMP280;40937;53.594;10.034;2023-04-01T07:00:33;99953.97;;;7.39
55038;BMP280;40937;53.594;10.034;2023-04-01T07:03:13;99953.28;;;7.32
55038;BMP280;40937;53.594;10.034;2023-04-01T07:05:44;99960.94;;;7.34
55038;BMP280;40937;53.594;10.034;2023-04-01T07:08:13;99963.91;;;7.26
55038;BMP280;40937;53.594;10.034;2023-04-01T07:10:47;99961.13;;;7.20
55038;BMP280;40937;53.594;10.034;2023-04-01T07:13:40;99962.41;;;7.18
55038;BMP280;40937;53.594;10.034;2023-04-01T07:16:17;99976.09;;;7.20
55038;BMP280;40937;53.594;10.034;2023-04-01T07:18:49;99980.88;;;7.23
55038;BMP280;40937;53.594;10.034;2023-04-01T07:21:25;99981.81;;;7.17
55038;BMP280;40937;53.594;10.034;2023-04-01T07:23:59;99983.13;;;7.08
55038;BMP280;40937;53.594;10.034;2023-04-01T07:26:53;99988.50;;;7.13
55038;BMP280;40937;53.594;10.034;2023-04-01T07:29:24;99993.63;;;7.08
55038;BMP280;40937;53.594;10.034;2023-04-01T07:32:21;99992.47;;;7.03
55038;BMP280;40937;53.594;10.034;2023-04-01T07:34:59;99997.25;;;7.07
55038;BMP280;40937;53.594;10.034;2023-04-01T07:37:34;100002.66;;;7.12
55038;BMP280;40937;53.594;10.034;2023-04-01T07:40:17;100008.13;;;7.10
55038;BMP280;40937;53.594;10.034;2023-04-01T07:42:59;100012.97;;;7.07
55038;BMP280;40937;53.594;10.034;2023-04-01T07:45:31;100018.22;;;7.07
55038;BMP280;40937;53.594;10.034;2023-04-01T07:48:15;100033.84;;;7.01
55038;BMP280;40937;53.594;10.034;2023-04-01T07:50:52;100030.50;;;6.94
55038;BMP280;40937;53.594;10.034;2023-04-01T07:53:25;100036.47;;;7.01
55038;BMP280;40937;53.594;10.034;2023-04-01T07:56:04;100044.88;;;6.92
55038;BMP280;40937;53.594;10.034;2023-04-01T07:58:45;100039.56;;;6.80
55038;BMP280;40937;53.594;10.034;2023-04-01T08:01:42;100038.69;;;6.68
55038;BMP280;40937;53.594;10.034;2023-04-01T08:04:36;100050.22;;;6.66
55038;BMP280;40937;53.594;10.034;2023-04-01T08:07:14;100044.63;;;6.63
55038;BMP280;40937;53.594;10.034;2023-04-01T08:10:04;100066.84;;;6.60
55038;BMP280;40937;53.594;10.034;2023-04-01T08:13:00;100068.94;;;6.70
55038;BMP280;40937;53.594;10.034;2023-04-01T08:15:52;100070.69;;;6.76
55038;BMP280;40937;53.594;10.034;2023-04-01T08:18:40;100065.34;;;6.83
55038;BMP280;40937;53.594;10.034;2023-04-01T08:21:13;100073.78;;;6.85
55038;BMP280;40937;53.594;10.034;2023-04-01T08:23:44;100083.56;;;6.78
55038;BMP280;40937;53.594;10.034;2023-04-01T08:26:19;100081.50;;;6.80
55038;BMP280;40937;53.594;10.034;2023-04-01T08:28:52;100078.75;;;6.75
55038;BMP280;40937;53.594;10.034;2023-04-01T08:31:29;100096.09;;;6.76
55038;BMP280;40937;53.594;10.034;2023-04-01T08:33:58;100091.88;;;6.75
55038;BMP280;40937;53.594;10.034;2023-04-01T08:36:32;100102.63;;;6.66
55038;BMP280;40937;53.594;10.034;2023-04-01T08:39:16;100103.09;;;6.63
55038;BMP280;40937;53.594;10.034;2023-04-01T08:45:34;100106.63;;;6.69
55038;BMP280;40937;53.594;10.034;2023-04-01T08:48:45;100126.78;;;6.69
55038;BMP280;40937;53.594;10.034;2023-04-01T08:51:58;100127.56;;;6.76
55038;BMP280;40937;53.594;10.034;2023-04-01T08:54:49;100135.69;;;6.86
55038;BMP280;40937;53.594;10.034;2023-04-01T08:57:55;100131.47;;;6.66
55038;BMP280;40937;53.594;10.034;2023-04-01T09:00:52;100125.56;;;6.71
55038;BMP280;40937;53.594;10.034;2023-04-01T09:03:44;100127.66;;;6.81
55038;BMP280;40937;53.594;10.034;2023-04-01T09:06:32;100138.66;;;6.90
55038;BMP280;40937;53.594;10.034;2023-04-01T09:09:13;100144.72;;;6.90
55038;BMP280;40937;53.594;10.034;2023-04-01T09:12:10;100142.03;;;6.78
55038;BMP280;40937;53.594;10.034;2023-04-01T09:15:12;100149.38;;;6.88
55038;BMP280;40937;53.594;10.034;2023-04-01T09:18:20;100159.56;;;6.96
55038;BMP280;40937;53.594;10.034;2023-04-01T09:21:24;100155.28;;;6.83
55038;BMP280;40937;53.594;10.034;2023-04-01T09:27:10;100165.09;;;6.88
55038;BMP280;40937;53.594;10.034;2023-04-01T09:33:01;100184.47;;;6.87
55038;BMP280;40937;53.594;10.034;2023-04-01T09:35:39;100185.13;;;6.82
55038;BMP280;40937;53.594;10.034;2023-04-01T09:38:20;100182.44;;;6.89
55038;BMP280;40937;53.594;10.034;2023-04-01T09:44:14;100189.41;;;6.95
55038;BMP280;40937;53.594;10.034;2023-04-01T09:47:59;100203.63;;;6.88
55038;BMP280;40937;53.594;10.034;2023-04-01T09:50:49;100200.22;;;6.87
55038;BMP280;40937;53.594;10.034;2023-04-01T09:53:40;100207.66;;;6.90
55038;BMP280;40937;53.594;10.034;2023-04-01T09:56:33;100207.97;;;6.94
55038;BMP280;40937;53.594;10.034;2023-04-01T10:09:25;100222.91;;;6.93
55038;BMP280;40937;53.594;10.034;2023-04-01T10:12:24;100225.91;;;6.97
55038;BMP280;40937;53.594;10.034;2023-04-01T10:21:33;100231.72;;;6.99
55038;BMP280;40937;53.594;10.034;2023-04-01T10:24:43;100236.19;;;6.98
55038;BMP280;40937;53.594;10.034;2023-04-01T10:27:21;100246.97;;;7.09
55038;BMP280;40937;53.594;10.034;2023-04-01T10:33:43;100249.19;;;7.05
55038;BMP280;40937;53.594;10.034;2023-04-01T10:36:34;100256.00;;;7.13
55038;BMP280;40937;53.594;10.034;2023-04-01T10:49:10;100266.44;;;7.87
55038;BMP280;40937;53.594;10.034;2023-04-01T10:52:35;100268.97;;;7.63
55038;BMP280;40937;53.594;10.034;2023-04-01T10:55:49;100270.63;;;7.57
55038;BMP280;40937;53.594;10.034;2023-04-01T11:12:30;100299.44;;;7.09
55038;BMP280;40937;53.594;10.034;2023-04-01T11:21:55;100317.50;;;7.17
55038;BMP280;40937;53.594;10.034;2023-04-01T11:25:04;100324.41;;;7.11
55038;BMP280;40937;53.594;10.034;2023-04-01T11:27:55;100329.72;;;7.04
55038;BMP280;40937;53.594;10.034;2023-04-01T11:30:38;100327.66;;;7.07
55038;BMP280;40937;53.594;10.034;2023-04-01T11:33:14;100335.88;;;7.17
55038;BMP280;40937;53.594;10.034;2023-04-01T11:35:55;100332.78;;;7.20
55038;BMP280;40937;53.594;10.034;2023-04-01T11:38:39;100333.38;;;7.22
55038;BMP280;40937;53.594;10.034;2023-04-01T11:41:34;100345.47;;;7.04
55038;BMP280;40937;53.594;10.034;2023-04-01T11:44:35;100349.25;;;7.09
55038;BMP280;40937;53.594;10.034;2023-04-01T11:47:40;100357.91;;;7.09
55038;BMP280;40937;53.594;10.034;2023-04-01T11:50:20;100356.31;;;7.08
55038;BMP280;40937;53.594;10.034;2023-04-01T11:55:55;100366.78;;;7.15
55038;BMP280;40937;53.594;10.034;2023-04-01T12:01:35;100376.59;;;6.94
55038;BMP280;40937;53.594;10.034;2023-04-01T12:04:36;100381.63;;;6.96
55038;BMP280;40937;53.594;10.034;2023-04-01T12:07:16;100395.50;;;6.78
55038;BMP280;40937;53.594;10.034;2023-04-01T12:09:54;100397.31;;;6.77
55038;BMP280;40937;53.594;10.034;2023-04-01T12:12:29;100398.56;;;6.68
55038;BMP280;40937;53.594;10.034;2023-04-01T12:15:10;100404.19;;;6.72
55038;BMP280;40937;53.594;10.034;2023-04-01T12:17:47;100401.41;;;6.66
55038;BMP280;40937;53.594;10.034;2023-04-01T12:20:29;100408.69;;;6.58
55038;BMP280;40937;53.594;10.034;2023-04-01T12:23:08;100415.16;;;6.55
55038;BMP280;40937;53.594;10.034;2023-04-01T12:26:00;100418.81;;;6.54
55038;BMP280;40937;53.594;10.034;2023-04-01T12:28:41;100429.63;;;6.64
55038;BMP280;40937;53.594;10.034;2023-04-01T12:31:21;100431.47;;;6.64
55038;BMP280;40937;53.594;10.034;2023-04-01T12:34:08;100439.16;;;6.59
55038;BMP280;40937;53.594;10.034;2023-04-01T12:36:48;100447.44;;;6.49
55038;BMP280;40937;53.594;10.034;2023-04-01T12:39:33;100437.00;;;6.42
55038;BMP280;40937;53.594;10.034;2023-04-01T12:42:14;100442.63;;;6.46
55038;BMP280;40937;53.594;10.034;2023-04-01T12:45:00;100449.22;;;6.55
55038;BMP280;40937;53.594;10.034;2023-04-01T12:48:18;100452.66;;;6.56
55038;BMP280;40937;53.594;10.034;2023-04-01T12:53:54;100470.28;;;6.28
55038;BMP280;40937;53.594;10.034;2023-04-01T12:56:33;100465.91;;;6.22
55038;BMP280;40937;53.594;10.034;2023-04-01T12:59:29;100474.72;;;6.28
55038;BMP280;40937;53.594;10.034;2023-04-01T13:02:13;100478.16;;;6.28
55038;BMP280;40937;53.594;10.034;2023-04-01T13:05:21;100481.97;;;6.33
55038;BMP280;40937;53.594;10.034;2023-04-01T13:11:02;100496.09;;;6.32
55038;BMP280;40937;53.594;10.034;2023-04-01T13:16:46;100506.00;;;6.23
55038;BMP280;40937;53.594;10.034;2023-04-01T13:19:19;100513.03;;;6.29
55038;BMP280;40937;53.594;10.034;2023-04-01T13:21:54;100502.34;;;6.37
55038;BMP280;40937;53.594;10.034;2023-04-01T13:24:31;100518.84;;;6.38
55038;BMP280;40937;53.594;10.034;2023-04-01T13:27:06;100539.03;;;6.31
55038;BMP280;40937;53.594;10.034;2023-04-01T13:29:38;100522.69;;;6.28
55038;BMP280;40937;53.594;10.034;2023-04-01T13:32:22;100530.72;;;6.34
55038;BMP280;40937;53.594;10.034;2023-04-01T13:35:02;100529.94;;;6.26
55038;BMP280;40937;53.594;10.034;2023-04-01T13:37:41;100537.41;;;6.30
55038;BMP280;40937;53.594;10.034;2023-04-01T13:40:25;100540.41;;;6.26
55038;BMP280;40937;53.594;10.034;2023-04-01T13:42:56;100540.63;;;6.32
55038;BMP280;40937;53.594;10.034;2023-04-01T13:45:32;100544.25;;;6.37
55038;BMP280;40937;53.594;10.034;2023-04-01T13:48:26;100552.91;;;6.38
55038;BMP280;40937;53.594;10.034;2023-04-01T13:51:15;100565.22;;;6.37
55038;BMP280;40937;53.594;10.034;2023-04-01T13:53:53;100557.97;;;6.19
55038;BMP280;40937;53.594;10.034;2023-04-01T13:56:33;100564.81;;;6.14
55038;BMP280;40937;53.594;10.034;2023-04-01T13:59:16;100580.16;;;6.17
55038;BMP280;40937;53.594;10.034;2023-04-01T14:01:53;100567.66;;;6.12
55038;BMP280;40937;53.594;10.034;2023-04-01T14:04:38;100574.47;;;6.13
55038;BMP280;40937;53.594;10.034;2023-04-01T14:07:17;100577.31;;;6.18
55038;BMP280;40937;53.594;10.034;2023-04-01T14:09:58;100580.94;;;6.24
55038;BMP280;40937;53.594;10.034;2023-04-01T14:12:31;100589.38;;;6.26
55038;BMP280;40937;53.594;10.034;2023-04-01T14:15:18;100596.03;;;6.28
55038;BMP280;40937;53.594;10.034;2023-04-01T14:18:03;100592.63;;;6.21
55038;BMP280;40937;53.594;10.034;2023-04-01T14:20:40;100603.09;;;6.28
55038;BMP280;40937;53.594;10.034;2023-04-01T14:23:30;100593.81;;;6.25
55038;BMP280;40937;53.594;10.034;2023-04-01T14:26:15;100614.19;;;6.17
55038;BMP280;40937;53.594;10.034;2023-04-01T14:28:55;100614.78;;;6.12
55038;BMP280;40937;53.594;10.034;2023-04-01T14:31:36;100614.00;;;6.18
55038;BMP280;40937;53.594;10.034;2023-04-01T14:34:18;100617.22;;;6.14
55038;BMP280;40937;53.594;10.034;2023-04-01T14:37:07;100619.00;;;6.13
55038;BMP280;40937;53.594;10.034;2023-04-01T14:39:54;100622.84;;;6.17
55038;BMP280;40937;53.594;10.034;2023-04-01T14:42:41;100636.53;;;6.19
55038;BMP280;40937;53.594;10.034;2023-04-01T14:45:33;100634.75;;;6.20
55038;BMP280;40937;53.594;10.034;2023-04-01T14:48:22;100645.38;;;6.12
55038;BMP280;40937;53.594;10.034;2023-04-01T14:51:08;100646.81;;;6.14
55038;BMP280;40937;53.594;10.034;2023-04-01T14:54:04;100654.47;;;6.22
55038;BMP280;40937;53.594;10.034;2023-04-01T14:56:41;100666.13;;;6.13
55038;BMP280;40937;53.594;10.034;2023-04-01T14:59:25;100674.59;;;6.02
55038;BMP280;40937;53.594;10.034;2023-04-01T15:02:08;100670.34;;;6.01
55038;BMP280;40937;53.594;10.034;2023-04-01T15:05:02;100672.97;;;6.01
55038;BMP280;40937;53.594;10.034;2023-04-01T15:08:00;100670.19;;;5.96
55038;BMP280;40937;53.594;10.034;2023-04-01T15:10:52;100677.22;;;6.02
55038;BMP280;40937;53.594;10.034;2023-04-01T15:13:33;100682.47;;;6.02
55038;BMP280;40937;53.594;10.034;2023-04-01T15:16:10;100694.56;;;6.03
55038;BMP280;40937;53.594;10.034;2023-04-01T15:18:48;100695.75;;;6.07
55038;BMP280;40937;53.594;10.034;2023-04-01T15:21:31;100707.41;;;5.98
55038;BMP280;40937;53.594;10.034;2023-04-01T15:24:06;100710.44;;;5.95
55038;BMP280;40937;53.594;10.034;2023-04-01T15:26:46;100705.59;;;5.78
55038;BMP280;40937;53.594;10.034;2023-04-01T15:29:34;100713.44;;;5.85
55038;BMP280;40937;53.594;10.034;2023-04-01T15:32:14;100724.56;;;5.94
55038;BMP280;40937;53.594;10.034;2023-04-01T15:34:45;100724.69;;;5.85
55038;BMP280;40937;53.594;10.034;2023-04-01T15:37:22;100731.53;;;5.73
55038;BMP280;40937;53.594;10.034;2023-04-01T15:39:57;100727.91;;;5.74
55038;BMP280;40937;53.594;10.034;2023-04-01T15:42:35;100730.97;;;5.78
55038;BMP280;40937;53.594;10.034;2023-04-01T15:45:28;100737.38;;;5.82
55038;BMP280;40937;53.594;10.034;2023-04-01T15:48:11;100744.03;;;5.84
55038;BMP280;40937;53.594;10.034;2023-04-01T15:50:52;100750.88;;;5.79
55038;BMP280;40937;53.594;10.034;2023-04-01T15:53:35;100754.53;;;5.84
55038;BMP280;40937;53.594;10.034;2023-04-01T15:56:16;100756.69;;;5.74
55038;BMP280;40937;53.594;10.034;2023-04-01T15:59:29;100768.97;;;5.74
55038;BMP280;40937;53.594;10.034;2023-04-01T16:02:11;100771.81;;;5.85
55038;BMP280;40937;53.594;10.034;2023-04-01T16:04:47;100776.25;;;5.85
55038;BMP280;40937;53.594;10.034;2023-04-01T16:13:35;100790.81;;;5.52
55038;BMP280;40937;53.594;10.034;2023-04-01T16:19:26;100802.91;;;5.53
55038;BMP280;40937;53.594;10.034;2023-04-01T16:22:05;100810.56;;;5.55
55038;BMP280;40937;53.594;10.034;2023-04-01T16:24:42;100807.94;;;5.48
55038;BMP280;40937;53.594;10.034;2023-04-01T16:27:14;100812.72;;;5.45
55038;BMP280;40937;53.594;10.034;2023-04-01T16:29:48;100821.13;;;5.40
55038;BMP280;40937;53.594;10.034;2023-04-01T16:32:37;100824.38;;;5.42
55038;BMP280;40937;53.594;10.034;2023-04-01T16:35:23;100824.00;;;5.45